KCRS

C David Campbell Field-Corsicana Municipal Airport

Corsicana, Texas, USA
METAR KCRS 240153Z AUTO 16004KT 10SM CLR 24/20 A3001 RMK AO2 SLP157 T02440200
Observed Flight Rules
May-24 @ 01:53 UTC (26 minutes ago) Visual Flight Rules
Wind Visibility Clouds
160° at 4 knots 10 miles
  • Clear skies
Temperatures Readings
Current 24°C / 75°F
Dewpoint 20°C / 68°F
Humidity 78%
Altimeter 30.01" Hg
Pressure 1015.7 hPa
Elevation 133
METAR KCRS 240153Z AUTO 16004KT 10SM CLR 24/20 A3001 RMK AO2 SLP157 T02440200
Observed Flight Rules
May-24 @ 01:53 UTC
(26 minutes ago)
VFR
Wind Visibility
160° at 4 knots 10 miles
Clouds
  • Clear skies
Temperature Dewpoint
24°C / 75°F 20°C / 68°F
Humidity Altimeter Pressure
78% 30.01" Hg 1015.7 hPa